Time;durP1;ratioP1;P1;durP2;ratioP2;P2;SDS_P1;SDS_P2;PMS_P1;PMS_P2;Temp;Humidity;BMP_temperature;BMP_pressure;BME280_temperature;BME280_humidity;BME280_pressure;Samples;Min_cycle;Max_cycle;Signal;HPM_P1;HPM_P2
2023/05/15 00:02:09;;;;;;;7.73;4.90;;;10.60;1.00;;;;;;5111903;28;20422;-83
2023/05/15 00:04:39;;;;;;;5.40;4.90;;;10.70;1.00;;;;;;5100472;28;20427;-83
2023/05/15 00:07:09;;;;;;;5.83;4.70;;;10.80;1.00;;;;;;5096572;28;20450;-83
2023/05/15 00:09:35;;;;;;;5.87;4.60;;;10.70;1.00;;;;;;5113173;28;20533;-82
2023/05/15 00:12:09;;;;;;;5.90;4.60;;;10.60;1.00;;;;;;5111816;27;21026;-83
2023/05/15 00:14:39;;;;;;;6.60;5.13;;;10.60;1.00;;;;;;5099484;28;20580;-85
2023/05/15 00:17:11;;;;;;;7.37;5.00;;;10.50;1.00;;;;;;5099576;28;20480;-82
2023/05/15 00:19:37;;;;;;;5.23;4.37;;;10.50;1.00;;;;;;5099768;27;20401;-74
2023/05/15 00:22:04;;;;;;;6.23;4.70;;;10.50;1.00;;;;;;5138320;27;20405;-74
2023/05/15 00:24:34;;;;;;;9.33;4.77;;;10.50;1.00;;;;;;5121995;27;20427;-74
2023/05/15 00:27:00;;;;;;;5.17;4.60;;;10.50;1.00;;;;;;5117309;27;20454;-74
2023/05/15 00:29:26;;;;;;;12.00;4.20;;;10.40;1.00;;;;;;5117111;28;20438;-74
2023/05/15 00:32:09;;;;;;;12.30;5.63;;;10.40;1.00;;;;;;5133082;27;20425;-74
2023/05/15 00:34:39;;;;;;;5.20;4.70;;;10.40;1.00;;;;;;5138523;27;20516;-83
2023/05/15 00:37:09;;;;;;;6.87;4.80;;;10.30;1.00;;;;;;5119824;27;20900;-83
2023/05/15 00:40:10;;;;;;;7.47;5.03;;;10.30;1.00;;;;;;5119921;27;20501;-83
2023/05/15 00:42:40;;;;;;;6.40;4.90;;;10.30;1.00;;;;;;5105773;28;20484;-83
2023/05/15 00:45:11;;;;;;;13.53;5.03;;;10.20;1.00;;;;;;5099357;28;20431;-83
2023/05/15 00:47:41;;;;;;;7.63;4.80;;;10.20;1.00;;;;;;5113857;27;20450;-83
2023/05/15 00:50:13;;;;;;;7.80;5.03;;;10.20;1.00;;;;;;5118190;27;20420;-83
2023/05/15 00:53:09;;;;;;;19.20;5.10;;;10.00;1.00;;;;;;5108753;28;20748;-83
2023/05/15 00:55:46;;;;;;;7.50;4.70;;;10.00;1.00;;;;;;5099138;28;20374;-83
2023/05/15 00:58:17;;;;;;;7.30;5.03;;;10.00;1.00;;;;;;5110984;28;20971;-83
2023/05/15 01:00:52;;;;;;;11.67;4.90;;;10.00;1.00;;;;;;5098412;28;20431;-83
2023/05/15 01:06:39;;;;;;;5.30;4.40;;;9.80;1.00;;;;;;5117182;28;20447;-84
2023/05/15 01:16:30;;;;;;;6.53;5.37;;;9.80;1.00;;;;;;5133962;27;20402;-83
2023/05/15 01:22:39;;;;;;;12.23;5.07;;;9.60;1.00;;;;;;5121877;27;20418;-82
2023/05/15 01:28:32;;;;;;;8.10;6.37;;;9.50;1.00;;;;;;5137154;27;20452;-82
2023/05/15 01:38:33;;;;;;;8.17;5.70;;;9.50;1.00;;;;;;5116505;28;20359;-83
2023/05/15 01:51:57;;;;;;;7.60;4.80;;;9.20;1.00;;;;;;5116937;28;20912;-83
2023/05/15 01:55:03;;;;;;;6.17;5.40;;;9.10;1.00;;;;;;5116278;28;20482;-83
2023/05/15 02:00:52;;;;;;;7.30;5.23;;;9.00;1.00;;;;;;5115934;28;20375;-82
2023/05/15 02:10:30;;;;;;;7.37;6.20;;;9.00;1.00;;;;;;5115878;28;20401;-83
2023/05/15 02:16:18;;;;;;;8.50;5.83;;;8.90;1.00;;;;;;5119244;27;20890;-83
2023/05/15 02:22:06;;;;;;;6.47;5.13;;;8.70;1.00;;;;;;5136187;27;20252;-83
2023/05/15 02:27:58;;;;;;;7.67;5.33;;;8.80;1.00;;;;;;5133808;27;20686;-83
2023/05/15 02:34:15;;;;;;;7.17;5.80;;;8.80;1.00;;;;;;5114452;28;20448;-83
2023/05/15 02:37:00;;;;;;;11.93;6.50;;;8.70;1.00;;;;;;5124556;27;20784;-74
2023/05/15 02:39:34;;;;;;;10.83;6.90;;;8.60;1.00;;;;;;5135703;27;20751;-74
2023/05/15 02:42:16;;;;;;;12.17;7.37;;;8.60;1.00;;;;;;5119881;27;20913;-74
2023/05/15 02:44:47;;;;;;;6.83;5.50;;;8.80;1.00;;;;;;5096813;28;20461;-74
2023/05/15 02:47:13;;;;;;;8.40;5.93;;;8.60;1.00;;;;;;5125462;27;20457;-74
2023/05/15 02:49:44;;;;;;;9.20;5.30;;;8.60;1.00;;;;;;5135845;27;20399;-83
2023/05/15 02:52:10;;;;;;;5.90;4.97;;;8.70;1.00;;;;;;5116864;27;20954;-84
2023/05/15 03:04:41;;;;;;;14.43;6.17;;;8.70;1.00;;;;;;5135420;27;20436;-74
2023/05/15 03:07:07;;;;;;;13.90;5.27;;;8.70;1.00;;;;;;5115275;27;20478;-74
2023/05/15 03:09:40;;;;;;;6.57;5.70;;;8.70;1.00;;;;;;5131357;27;20173;-75
2023/05/15 03:12:07;;;;;;;7.93;5.20;;;8.70;1.00;;;;;;5114541;28;20551;-75
2023/05/15 03:14:32;;;;;;;7.70;5.93;;;8.70;1.00;;;;;;5114338;28;20412;-74
2023/05/15 03:16:59;;;;;;;8.80;5.30;;;8.70;1.00;;;;;;5120132;27;20445;-74
2023/05/15 03:19:40;;;;;;;9.03;5.50;;;8.80;1.00;;;;;;5133388;27;20165;-74
2023/05/15 03:22:10;;;;;;;8.10;4.90;;;8.70;1.00;;;;;;5114589;28;20411;-75
2023/05/15 03:24:40;;;;;;;9.80;5.70;;;8.70;1.00;;;;;;5114350;28;20490;-74
2023/05/15 03:27:39;;;;;;;6.60;5.60;;;8.70;1.00;;;;;;5122301;27;20817;-75
2023/05/15 03:30:22;;;;;;;7.70;5.30;;;8.60;1.00;;;;;;5134275;27;20908;-74
2023/05/15 03:32:47;;;;;;;8.63;5.00;;;8.50;1.00;;;;;;5117980;27;20952;-74
2023/05/15 03:38:35;;;;;;;14.03;6.37;;;8.50;1.00;;;;;;5131921;27;20263;-83
2023/05/15 03:51:27;;;;;;;10.63;6.50;;;8.40;1.00;;;;;;5134985;28;20441;-84
2023/05/15 04:00:37;;;;;;;14.53;5.07;;;8.40;1.00;;;;;;5131521;28;20475;-82
2023/05/15 04:03:51;;;;;;;8.90;6.07;;;8.40;1.00;;;;;;5133951;28;20920;-81
2023/05/15 04:09:39;;;;;;;8.23;5.70;;;8.40;1.00;;;;;;5117801;28;20404;-82
2023/05/15 04:15:40;;;;;;;7.13;5.47;;;8.50;1.00;;;;;;5114582;28;20217;-83
2023/05/15 04:24:49;;;;;;;6.30;5.03;;;8.50;1.00;;;;;;5114067;28;20367;-82
2023/05/15 04:33:59;;;;;;;16.23;5.67;;;8.60;1.00;;;;;;5113541;28;20494;-83
2023/05/15 04:36:34;;;;;;;6.70;5.40;;;8.60;1.00;;;;;;5096020;28;20510;-83
2023/05/15 04:39:21;;;;;;;7.27;5.50;;;8.60;1.00;;;;;;5113856;28;20643;-83
2023/05/15 04:55:33;;;;;;;7.20;5.40;;;9.20;1.00;;;;;;5133848;27;20475;-83
2023/05/15 04:58:27;;;;;;;7.20;5.70;;;9.20;1.00;;;;;;5109993;28;20547;-82
2023/05/15 05:01:30;;;;;;;9.10;5.93;;;9.30;1.00;;;;;;5108672;27;20463;-82
2023/05/15 05:07:17;;;;;;;17.30;5.80;;;9.60;1.00;;;;;;5119613;27;20466;-83
2023/05/15 05:09:45;;;;;;;7.70;6.03;;;9.70;1.00;;;;;;5098073;28;20774;-83
2023/05/15 05:15:33;;;;;;;7.93;5.40;;;10.00;1.00;;;;;;5117057;28;20438;-83
2023/05/15 05:25:21;;;;;;;9.80;5.93;;;10.40;1.00;;;;;;5120412;27;20467;-82
2023/05/15 05:34:30;;;;;;;9.27;5.80;;;10.90;1.00;;;;;;5116499;28;20417;-82
2023/05/15 05:36:56;;;;;;;9.00;5.90;;;11.00;1.00;;;;;;5110952;27;20426;-84
2023/05/15 05:39:28;;;;;;;8.07;5.70;;;11.20;1.00;;;;;;5105176;28;20197;-73
2023/05/15 05:41:54;;;;;;;16.17;5.27;;;11.30;1.00;;;;;;5110838;27;20188;-73
2023/05/15 05:44:28;;;;;;;6.87;5.43;;;11.40;1.00;;;;;;5136799;27;20881;-73
2023/05/15 05:46:54;;;;;;;11.07;6.30;;;11.60;1.00;;;;;;5134767;27;20433;-73
2023/05/15 05:49:28;;;;;;;15.93;6.00;;;11.80;1.00;;;;;;5136633;27;20493;-73
2023/05/15 05:52:05;;;;;;;7.80;5.43;;;11.90;1.00;;;;;;5118054;27;20193;-73
2023/05/15 05:54:31;;;;;;;6.80;5.60;;;12.10;1.00;;;;;;5115851;28;20456;-73
2023/05/15 05:56:57;;;;;;;9.43;6.63;;;12.30;1.00;;;;;;5128170;27;20437;-73
2023/05/15 05:59:22;;;;;;;8.77;6.37;;;12.40;1.00;;;;;;5118212;27;20169;-73
2023/05/15 06:01:58;;;;;;;7.53;6.10;;;12.60;1.00;;;;;;5115908;27;20185;-73
2023/05/15 06:04:23;;;;;;;7.93;5.47;;;12.80;1.00;;;;;;5117112;27;20188;-73
2023/05/15 06:06:49;;;;;;;9.90;6.97;;;13.00;1.00;;;;;;5133579;27;20440;-73
2023/05/15 06:09:15;;;;;;;7.60;6.50;;;13.10;1.00;;;;;;5135232;27;20200;-73
2023/05/15 06:11:41;;;;;;;10.83;6.50;;;13.40;1.00;;;;;;5128924;27;20193;-72
2023/05/15 06:14:07;;;;;;;7.03;6.13;;;13.60;1.00;;;;;;5136088;27;20905;-72
2023/05/15 06:16:33;;;;;;;6.20;5.57;;;13.80;1.00;;;;;;5129809;27;20434;-72
2023/05/15 06:18:58;;;;;;;7.63;5.83;;;14.00;1.00;;;;;;5127138;27;20177;-73
2023/05/15 06:21:27;;;;;;;9.67;6.43;;;14.20;1.00;;;;;;5135063;27;20532;-72
2023/05/15 06:23:52;;;;;;;6.90;5.37;;;14.40;1.00;;;;;;5135826;27;20609;-72
2023/05/15 06:26:18;;;;;;;8.07;6.70;;;14.60;1.00;;;;;;5130499;27;20474;-72
2023/05/15 06:28:44;;;;;;;11.03;5.90;;;14.80;1.00;;;;;;5135676;27;20150;-72
2023/05/15 06:31:10;;;;;;;7.37;5.13;;;14.90;1.00;;;;;;5132067;27;20401;-72
2023/05/15 06:33:35;;;;;;;8.43;6.17;;;15.00;1.00;;;;;;5115115;28;20174;-72
2023/05/15 06:36:01;;;;;;;8.23;5.90;;;15.20;1.00;;;;;;5116163;27;20327;-72
2023/05/15 06:38:27;;;;;;;5.93;5.00;;;15.30;1.00;;;;;;5133397;27;20314;-73
2023/05/15 06:40:58;;;;;;;5.80;5.20;;;15.50;1.00;;;;;;5120701;27;20658;-73
2023/05/15 06:43:23;;;;;;;6.00;5.33;;;15.60;1.00;;;;;;5121316;27;20183;-73
2023/05/15 06:45:49;;;;;;;8.43;4.90;;;15.80;1.00;;;;;;5116402;27;20450;-73
2023/05/15 06:48:15;;;;;;;6.23;5.00;;;15.80;1.00;;;;;;5114987;27;20282;-73
2023/05/15 06:50:40;;;;;;;6.00;5.00;;;15.90;1.00;;;;;;5115117;28;20171;-73
2023/05/15 06:53:06;;;;;;;4.70;4.30;;;16.00;1.00;;;;;;5115410;28;20208;-74
2023/05/15 06:55:35;;;;;;;5.13;4.63;;;16.10;1.00;;;;;;5114925;28;20163;-73
2023/05/15 06:58:01;;;;;;;11.20;4.87;;;16.10;1.00;;;;;;5123207;27;20183;-73
2023/05/15 07:00:27;;;;;;;5.77;4.37;;;16.20;1.00;;;;;;5114742;28;20367;-73
2023/05/15 07:02:58;;;;;;;6.17;4.73;;;16.30;1.00;;;;;;5132092;27;20484;-73
2023/05/15 07:05:23;;;;;;;5.63;4.60;;;16.30;1.00;;;;;;5135123;27;20164;-73
2023/05/15 07:07:52;;;;;;;4.77;4.37;;;16.30;1.00;;;;;;5134168;27;20973;-73
2023/05/15 07:10:18;;;;;;;4.60;4.20;;;16.60;1.00;;;;;;5135189;27;20242;-73
2023/05/15 07:12:43;;;;;;;6.17;3.67;;;16.80;1.00;;;;;;5122946;27;20521;-73
2023/05/15 07:15:09;;;;;;;3.87;3.53;;;17.00;1.00;;;;;;5125742;27;20180;-73
2023/05/15 07:17:35;;;;;;;4.37;3.97;;;17.20;1.00;;;;;;5133483;27;20184;-73
2023/05/15 07:20:16;;;;;;;3.93;3.63;;;17.40;1.00;;;;;;5118454;27;20437;-73
2023/05/15 07:22:41;;;;;;;6.93;4.50;;;17.60;1.00;;;;;;5114918;28;20229;-73
2023/05/15 07:25:10;;;;;;;4.83;4.33;;;17.50;1.00;;;;;;5114311;28;20403;-73
2023/05/15 07:27:35;;;;;;;4.27;3.87;;;17.50;1.00;;;;;;5130676;27;20642;-73
2023/05/15 07:30:02;;;;;;;5.93;4.73;;;17.60;1.00;;;;;;5131341;27;20448;-73
2023/05/15 07:32:29;;;;;;;4.33;3.93;;;17.70;1.00;;;;;;5125652;27;20255;-74
2023/05/15 07:34:55;;;;;;;5.30;4.80;;;17.70;1.00;;;;;;5134654;27;20390;-73
2023/05/15 07:37:22;;;;;;;5.03;4.17;;;17.70;1.00;;;;;;5120723;27;20431;-73
2023/05/15 07:39:48;;;;;;;4.67;4.27;;;17.80;1.00;;;;;;5102285;27;20824;-74
2023/05/15 07:45:35;;;;;;;5.30;4.57;;;18.00;1.00;;;;;;5135530;27;20190;-89
2023/05/15 07:48:57;;;;;;;4.70;3.90;;;18.10;1.00;;;;;;5133462;27;20437;-90
2023/05/15 07:54:52;;;;;;;5.13;4.63;;;18.30;1.00;;;;;;5114563;28;20406;-84
2023/05/15 08:00:40;;;;;;;5.57;4.97;;;18.30;1.00;;;;;;5119647;28;20561;-84
2023/05/15 08:16:34;;;;;;;6.47;3.83;;;18.80;1.00;;;;;;5129552;28;20468;-84
2023/05/15 08:22:21;;;;;;;4.47;4.10;;;19.10;1.00;;;;;;5114443;28;20161;-84
2023/05/15 08:25:39;;;;;;;11.60;4.30;;;19.30;1.00;;;;;;5114643;28;20375;-85
2023/05/15 08:31:27;;;;;;;4.10;3.70;;;19.20;1.00;;;;;;5134813;27;20422;-85
2023/05/15 08:38:10;;;;;;;7.60;3.80;;;19.20;1.00;;;;;;5118201;28;20216;-85
2023/05/15 08:40:36;;;;;;;5.23;4.10;;;19.30;1.00;;;;;;5100221;28;20909;-87
2023/05/15 08:43:40;;;;;;;8.10;3.97;;;19.20;1.00;;;;;;5106045;27;20424;-85
2023/05/15 08:49:50;;;;;;;4.10;3.70;;;19.70;1.00;;;;;;5129786;27;20465;-86
2023/05/15 08:52:57;;;;;;;4.70;4.03;;;19.70;1.00;;;;;;5100077;28;20442;-86
2023/05/15 08:58:46;;;;;;;10.63;3.93;;;19.90;1.00;;;;;;5131900;27;20396;-89
2023/05/15 09:04:33;;;;;;;5.47;3.77;;;20.20;1.00;;;;;;5119569;27;20422;-90
2023/05/15 09:13:43;;;;;;;5.93;4.00;;;20.60;1.00;;;;;;5118623;27;20488;-85
2023/05/15 09:19:32;;;;;;;7.10;4.53;;;20.50;1.00;;;;;;5117373;28;20168;-84
2023/05/15 09:25:40;;;;;;;6.17;3.77;;;20.80;1.00;;;;;;5117254;28;20405;-86
2023/05/15 09:31:28;;;;;;;5.03;3.77;;;21.00;1.00;;;;;;5118908;27;20411;-85
2023/05/15 09:37:33;;;;;;;4.07;3.67;;;21.20;1.00;;;;;;5117284;28;20210;-86
2023/05/15 09:46:43;;;;;;;6.23;4.13;;;21.90;1.00;;;;;;5116965;28;20967;-91
2023/05/15 09:49:44;;;;;;;11.10;4.20;;;22.50;1.00;;;;;;5098892;28;20414;-91
2023/05/15 09:52:10;;;;;;;7.97;4.60;;;23.00;1.00;;;;;;5099703;28;20184;-92
2023/05/15 10:01:20;;;;;;;6.33;5.30;;;23.40;1.00;;;;;;5119632;27;20414;-92
2023/05/15 10:07:08;;;;;;;7.80;6.20;;;22.70;1.00;;;;;;5116186;28;20820;-92
2023/05/15 10:09:46;;;;;;;12.60;6.90;;;22.40;1.00;;;;;;5098737;28;20507;-91
2023/05/15 10:18:56;;;;;;;16.17;8.10;;;20.90;1.00;;;;;;5116322;28;20465;-90
2023/05/15 10:24:47;;;;;;;15.10;9.60;;;20.50;1.00;;;;;;5116120;28;20976;-71
2023/05/15 10:27:14;;;;;;;18.47;10.17;;;20.10;1.00;;;;;;5115201;28;20994;-71
2023/05/15 10:29:41;;;;;;;20.07;9.90;;;19.70;1.00;;;;;;5115253;28;20368;-71
2023/05/15 10:32:07;;;;;;;17.60;10.83;;;19.50;1.00;;;;;;5123039;27;20440;-71
2023/05/15 10:34:33;;;;;;;20.07;11.23;;;19.60;1.00;;;;;;5132068;27;20403;-71
2023/05/15 10:37:05;;;;;;;19.40;11.63;;;19.80;1.00;;;;;;5115030;28;20376;-71
2023/05/15 10:39:33;;;;;;;17.30;11.50;;;20.10;1.00;;;;;;5115586;27;20442;-71
2023/05/15 10:42:00;;;;;;;20.43;12.27;;;20.40;1.00;;;;;;5114972;28;20752;-71
2023/05/15 10:44:26;;;;;;;20.50;11.70;;;20.70;1.00;;;;;;5120093;27;20417;-71
2023/05/15 10:46:52;;;;;;;18.37;11.23;;;20.60;1.00;;;;;;5130594;27;20475;-71
2023/05/15 10:49:18;;;;;;;22.47;12.20;;;20.50;1.00;;;;;;5123157;27;20199;-71
2023/05/15 10:51:43;;;;;;;21.03;11.17;;;20.70;1.00;;;;;;5134648;27;20916;-71
2023/05/15 10:54:09;;;;;;;22.07;10.77;;;21.00;1.00;;;;;;5135061;27;20615;-71
2023/05/15 10:56:38;;;;;;;17.90;11.37;;;21.00;1.00;;;;;;5135303;27;20828;-71
2023/05/15 10:59:07;;;;;;;16.27;9.20;;;21.30;1.00;;;;;;5133146;27;20645;-71
2023/05/15 11:01:35;;;;;;;14.00;8.80;;;21.40;1.00;;;;;;5119500;27;20452;-71
2023/05/15 11:04:06;;;;;;;18.07;10.10;;;21.50;1.00;;;;;;5129328;27;20488;-71
2023/05/15 11:06:32;;;;;;;25.10;9.90;;;21.60;1.00;;;;;;5134025;27;20458;-71
2023/05/15 11:09:20;;;;;;;14.60;9.70;;;21.60;1.00;;;;;;5134089;27;20441;-71
2023/05/15 11:11:51;;;;;;;17.23;10.30;;;21.70;1.00;;;;;;5114515;28;20368;-71
2023/05/15 11:14:18;;;;;;;17.73;10.47;;;21.60;1.00;;;;;;5114590;28;20380;-71
2023/05/15 11:16:53;;;;;;;18.63;11.23;;;21.70;1.00;;;;;;5132627;27;20433;-72
2023/05/15 11:19:22;;;;;;;18.37;10.63;;;21.80;1.00;;;;;;5131640;27;20388;-71
2023/05/15 11:21:56;;;;;;;17.63;10.00;;;22.10;1.00;;;;;;5121315;27;20772;-71
2023/05/15 11:24:45;;;;;;;13.40;9.77;;;22.50;1.00;;;;;;5121115;27;20442;-71
2023/05/15 11:27:12;;;;;;;18.03;10.57;;;22.60;1.00;;;;;;5134415;27;20453;-71
2023/05/15 11:30:10;;;;;;;14.23;9.50;;;22.90;1.00;;;;;;5106001;27;20775;-72
2023/05/15 11:32:46;;;;;;;14.57;9.40;;;23.00;1.00;;;;;;5044744;28;20571;-71
2023/05/15 11:35:55;;;;;;;20.50;10.73;;;22.80;1.00;;;;;;5051237;28;20428;-76
2023/05/15 11:38:25;;;;;;;16.23;10.80;;;22.80;1.00;;;;;;5034878;28;20939;-76
2023/05/15 11:41:02;;;;;;;19.90;11.30;;;22.50;1.00;;;;;;5051496;28;20871;-71
2023/05/15 11:43:34;;;;;;;19.03;10.60;;;22.40;1.00;;;;;;5046827;28;20443;-71
2023/05/15 11:46:02;;;;;;;18.77;11.70;;;22.30;1.00;;;;;;5051196;28;20404;-71
2023/05/15 11:48:41;;;;;;;19.07;10.83;;;22.30;1.00;;;;;;5050634;28;20459;-71
2023/05/15 11:51:20;;;;;;;18.50;11.23;;;22.40;1.00;;;;;;5050999;28;20501;-71
2023/05/15 11:53:48;;;;;;;18.77;10.87;;;22.60;1.00;;;;;;5050685;28;21013;-71
2023/05/15 11:56:26;;;;;;;21.10;11.50;;;22.70;1.00;;;;;;5034518;28;20447;-75
2023/05/15 11:59:25;;;;;;;17.07;10.97;;;23.00;1.00;;;;;;5050684;28;20442;-76
2023/05/15 12:02:39;;;;;;;15.20;10.87;;;23.00;1.00;;;;;;5031382;28;20489;-76
2023/05/15 12:11:54;;;;;;;11.43;8.27;;;22.90;1.00;;;;;;5136485;27;20457;-84
2023/05/15 12:17:44;;;;;;;16.10;6.97;;;22.90;1.00;;;;;;5138436;27;20561;-83
2023/05/15 12:20:17;;;;;;;9.73;7.17;;;23.10;1.00;;;;;;5120351;27;20417;-83
2023/05/15 12:26:05;;;;;;;8.57;6.50;;;23.30;1.00;;;;;;5118326;28;20370;-86
2023/05/15 12:28:33;;;;;;;12.97;7.17;;;23.60;1.00;;;;;;5100161;27;20812;-84
2023/05/15 12:31:27;;;;;;;9.43;6.67;;;23.70;1.00;;;;;;5138246;27;20191;-86
2023/05/15 12:37:22;;;;;;;14.03;6.00;;;25.20;1.00;;;;;;5138962;27;20510;-86
2023/05/15 12:43:09;;;;;;;15.13;6.97;;;26.50;1.00;;;;;;5117594;28;20367;-84
2023/05/15 12:48:58;;;;;;;10.10;6.90;;;26.80;1.00;;;;;;5136835;27;20500;-83
2023/05/15 12:54:47;;;;;;;10.57;7.17;;;27.40;1.00;;;;;;5138140;27;20391;-84
2023/05/15 13:03:57;;;;;;;10.03;8.30;;;26.80;1.00;;;;;;5117754;28;20851;-85
2023/05/15 13:09:46;;;;;;;11.33;7.50;;;26.10;1.00;;;;;;5123625;27;20441;-85
2023/05/15 13:15:38;;;;;;;8.60;6.00;;;26.10;1.00;;;;;;5133201;27;20505;-86
2023/05/15 13:18:39;;;;;;;11.23;4.90;;;25.80;1.00;;;;;;5119320;27;20821;-86
2023/05/15 13:21:57;;;;;;;5.93;4.70;;;25.40;1.00;;;;;;5109389;27;20448;-85
2023/05/15 13:34:29;;;;;;;7.40;3.90;;;23.60;1.00;;;;;;5137263;27;20357;-84
2023/05/15 13:40:17;;;;;;;4.83;3.90;;;22.90;1.00;;;;;;5116737;28;20652;-83
2023/05/15 13:42:43;;;;;;;12.97;3.87;;;22.10;1.00;;;;;;5098610;28;20412;-73
2023/05/15 13:45:11;;;;;;;6.63;3.87;;;21.30;1.00;;;;;;5116247;28;20158;-74
2023/05/15 13:47:40;;;;;;;8.63;4.00;;;20.80;1.00;;;;;;5116290;28;20486;-73
2023/05/15 13:50:16;;;;;;;7.40;3.03;;;20.40;1.00;;;;;;5134775;27;20443;-74
2023/05/15 13:52:43;;;;;;;5.07;3.40;;;19.90;1.00;;;;;;5136765;27;20889;-74
2023/05/15 13:55:09;;;;;;;3.47;3.17;;;19.70;1.00;;;;;;5123766;27;20954;-74
2023/05/15 13:58:15;;;;;;;5.57;3.60;;;19.60;1.00;;;;;;5098122;28;20404;-80
2023/05/15 14:04:03;;;;;;;3.00;2.80;;;19.60;1.00;;;;;;5128834;27;20994;-81
2023/05/15 14:06:40;;;;;;;2.80;2.60;;;19.60;1.00;;;;;;5115153;27;20951;-80
2023/05/15 14:15:58;;;;;;;4.10;3.33;;;19.90;1.00;;;;;;5115511;28;20410;-80
2023/05/15 14:18:52;;;;;;;5.63;3.40;;;20.30;1.00;;;;;;5130058;27;20400;-82
2023/05/15 14:22:10;;;;;;;4.17;3.77;;;20.30;1.00;;;;;;5115141;27;20493;-82
2023/05/15 14:24:52;;;;;;;7.40;3.97;;;20.20;1.00;;;;;;5118555;27;20418;-81
2023/05/15 14:27:18;;;;;;;5.53;4.93;;;20.10;1.00;;;;;;5101296;27;20457;-74
2023/05/15 14:29:44;;;;;;;7.80;5.50;;;20.00;1.00;;;;;;5130196;27;20473;-73
2023/05/15 14:32:10;;;;;;;6.10;4.80;;;19.80;1.00;;;;;;5135219;27;20408;-76
2023/05/15 14:34:36;;;;;;;6.43;4.60;;;19.70;1.00;;;;;;5136124;27;20387;-74
2023/05/15 14:37:02;;;;;;;5.63;4.97;;;19.70;1.00;;;;;;5129675;27;20789;-73
2023/05/15 14:39:28;;;;;;;4.70;4.20;;;19.70;1.00;;;;;;5124873;27;20228;-74
2023/05/15 14:41:58;;;;;;;5.20;4.07;;;19.60;1.00;;;;;;5120146;27;20633;-80
2023/05/15 14:44:28;;;;;;;3.67;3.37;;;19.60;1.00;;;;;;5135961;27;20399;-74
2023/05/15 14:47:06;;;;;;;5.47;3.83;;;19.50;1.00;;;;;;5135562;27;20584;-75
2023/05/15 14:49:32;;;;;;;3.73;3.40;;;19.40;1.00;;;;;;5133636;27;20435;-75
2023/05/15 14:52:08;;;;;;;3.83;3.37;;;19.40;1.00;;;;;;5127467;27;20407;-75
2023/05/15 14:54:35;;;;;;;4.33;3.10;;;19.20;1.00;;;;;;5122229;27;20941;-74
2023/05/15 14:57:00;;;;;;;4.50;3.30;;;19.20;1.00;;;;;;5134843;27;20416;-74
2023/05/15 15:00:12;;;;;;;3.77;3.47;;;19.30;1.00;;;;;;5115421;27;20797;-81
2023/05/15 15:02:41;;;;;;;5.43;4.50;;;19.20;1.00;;;;;;5115083;28;20392;-82
2023/05/15 15:12:10;;;;;;;9.90;5.20;;;18.80;1.00;;;;;;5114079;28;20415;-81
2023/05/15 15:14:40;;;;;;;8.37;6.70;;;18.70;1.00;;;;;;5096090;27;20483;-79
2023/05/15 15:17:17;;;;;;;8.70;6.80;;;18.50;1.00;;;;;;5119620;27;20414;-82
2023/05/15 15:19:43;;;;;;;9.60;7.50;;;18.30;1.00;;;;;;5135002;27;20862;-81
2023/05/15 15:22:09;;;;;;;8.40;7.00;;;18.10;1.00;;;;;;5132930;27;20457;-83
2023/05/15 15:24:40;;;;;;;12.50;8.03;;;17.90;1.00;;;;;;5114330;27;20180;-84
2023/05/15 15:27:17;;;;;;;9.47;7.60;;;17.70;1.00;;;;;;5096348;28;20652;-83
2023/05/15 15:29:46;;;;;;;12.30;7.97;;;17.50;1.00;;;;;;5115411;27;20421;-76
2023/05/15 15:32:12;;;;;;;17.90;8.03;;;17.40;1.00;;;;;;5116821;27;20398;-75
2023/05/15 15:34:37;;;;;;;12.70;7.90;;;17.30;1.00;;;;;;5118263;27;20405;-74
2023/05/15 15:37:03;;;;;;;18.60;6.80;;;17.20;1.00;;;;;;5123351;27;20181;-74
2023/05/15 15:39:29;;;;;;;15.70;7.60;;;17.00;1.00;;;;;;5114989;27;20198;-74
2023/05/15 15:41:55;;;;;;;12.30;7.07;;;16.90;1.00;;;;;;5132302;27;20171;-74
2023/05/15 15:44:28;;;;;;;10.27;7.23;;;16.80;1.00;;;;;;5117535;27;20179;-80
2023/05/15 15:47:40;;;;;;;19.90;7.60;;;16.80;1.00;;;;;;5125718;27;20208;-80
2023/05/15 15:50:10;;;;;;;9.30;6.90;;;16.80;1.00;;;;;;5134641;27;20431;-80
2023/05/15 15:52:46;;;;;;;9.70;6.70;;;16.80;1.00;;;;;;5134615;28;20385;-80
2023/05/15 15:58:34;;;;;;;8.43;7.20;;;16.70;1.00;;;;;;5113939;28;20571;-74
2023/05/15 16:01:10;;;;;;;11.37;7.73;;;16.70;1.00;;;;;;5113973;28;20919;-74
2023/05/15 16:03:36;;;;;;;13.20;7.60;;;16.60;1.00;;;;;;5121860;28;20193;-74
2023/05/15 16:06:11;;;;;;;12.13;8.00;;;16.60;1.00;;;;;;5133910;28;20435;-74
2023/05/15 16:08:40;;;;;;;11.70;7.77;;;16.60;1.00;;;;;;5114325;28;20682;-75
2023/05/15 16:11:06;;;;;;;12.67;8.10;;;16.70;1.00;;;;;;5114321;28;20959;-74
2023/05/15 16:13:31;;;;;;;15.53;7.80;;;16.70;1.00;;;;;;5126627;28;20482;-75
2023/05/15 16:15:58;;;;;;;11.37;6.83;;;16.70;1.00;;;;;;5124698;28;20181;-73
2023/05/15 16:18:24;;;;;;;11.77;7.70;;;16.80;1.00;;;;;;5130577;28;20679;-74
2023/05/15 16:20:50;;;;;;;9.93;6.97;;;16.80;1.00;;;;;;5118579;28;20448;-73
2023/05/15 16:23:15;;;;;;;11.90;7.07;;;16.90;1.00;;;;;;5112169;28;20580;-75
2023/05/15 16:26:04;;;;;;;9.80;6.70;;;16.90;1.00;;;;;;5118814;28;20196;-75
2023/05/15 16:28:30;;;;;;;10.67;7.50;;;17.00;1.00;;;;;;5134478;28;20530;-76
2023/05/15 16:30:58;;;;;;;9.30;6.57;;;17.10;1.00;;;;;;5134330;28;20390;-75
2023/05/15 16:33:24;;;;;;;7.83;6.60;;;17.10;1.00;;;;;;5127754;28;20858;-74
2023/05/15 16:35:52;;;;;;;15.73;8.33;;;17.20;1.00;;;;;;5134504;28;20356;-75
2023/05/15 16:38:23;;;;;;;8.80;6.70;;;17.40;1.00;;;;;;5122112;28;20636;-76
2023/05/15 16:48:16;;;;;;;11.40;7.57;;;19.00;1.00;;;;;;5127074;28;20497;-77
2023/05/15 16:50:42;;;;;;;9.33;7.00;;;19.50;1.00;;;;;;5127914;28;20442;-75
2023/05/15 16:53:10;;;;;;;12.37;6.90;;;19.70;1.00;;;;;;5136165;27;20406;-75
2023/05/15 16:56:16;;;;;;;9.10;7.00;;;19.90;1.00;;;;;;5137047;27;20170;-79
2023/05/15 17:02:03;;;;;;;8.80;6.30;;;22.30;1.00;;;;;;5127490;27;20419;-76
2023/05/15 17:04:30;;;;;;;7.50;5.73;;;24.60;1.00;;;;;;5137610;27;20418;-76
2023/05/15 17:07:10;;;;;;;9.70;5.50;;;25.90;1.00;;;;;;5137898;27;20549;-76
2023/05/15 17:09:38;;;;;;;7.60;5.80;;;26.90;1.00;;;;;;5135925;27;20421;-76
2023/05/15 17:12:22;;;;;;;7.87;5.30;;;27.40;1.00;;;;;;5123460;27;20428;-76
2023/05/15 17:14:52;;;;;;;6.43;5.60;;;27.40;1.00;;;;;;5118728;27;20396;-87
2023/05/15 17:17:58;;;;;;;16.73;6.70;;;26.90;1.00;;;;;;5105905;28;20424;-87
2023/05/15 17:23:46;;;;;;;5.93;5.30;;;26.30;1.00;;;;;;5136953;27;20509;-86
2023/05/15 17:26:34;;;;;;;6.70;6.00;;;25.90;1.00;;;;;;5126725;27;20932;-89
2023/05/15 17:35:44;;;;;;;10.27;5.83;;;25.00;1.00;;;;;;5116924;28;20368;-84
2023/05/15 17:38:28;;;;;;;7.70;5.93;;;24.00;1.00;;;;;;5105854;27;20429;-81
2023/05/15 17:41:34;;;;;;;6.83;5.60;;;23.30;1.00;;;;;;5122532;27;20695;-79
2023/05/15 17:50:43;;;;;;;7.03;5.93;;;22.00;1.00;;;;;;5136194;27;20394;-83
2023/05/15 17:53:23;;;;;;;9.33;6.03;;;21.60;1.00;;;;;;5105541;28;20415;-84
2023/05/15 17:55:59;;;;;;;6.73;5.83;;;21.30;1.00;;;;;;5105761;27;20457;-85
2023/05/15 18:01:47;;;;;;;10.77;5.97;;;20.70;1.00;;;;;;5130952;27;20827;-81
2023/05/15 18:04:16;;;;;;;8.57;6.77;;;20.40;1.00;;;;;;5111264;28;20452;-81
2023/05/15 18:10:10;;;;;;;7.90;5.47;;;19.80;1.00;;;;;;5116072;28;20364;-80
2023/05/15 18:13:28;;;;;;;7.50;5.70;;;19.60;1.00;;;;;;5129277;27;20423;-80
2023/05/15 18:16:17;;;;;;;10.00;6.10;;;19.40;1.00;;;;;;5124782;27;20416;-82
2023/05/15 18:22:29;;;;;;;7.87;5.90;;;18.90;1.00;;;;;;5132825;27;20439;-84
2023/05/15 18:25:40;;;;;;;7.20;6.17;;;18.60;1.00;;;;;;5101667;27;20434;-83
2023/05/15 18:31:52;;;;;;;7.97;6.50;;;18.10;1.00;;;;;;5122162;27;22404;-82
2023/05/15 18:37:40;;;;;;;15.03;7.50;;;17.60;1.00;;;;;;5118261;27;21009;-84
2023/05/15 18:46:49;;;;;;;8.47;6.63;;;16.90;1.00;;;;;;5115892;27;20406;-84
2023/05/15 18:49:43;;;;;;;9.40;7.17;;;16.70;1.00;;;;;;5126012;27;20455;-84
2023/05/15 18:52:09;;;;;;;12.93;7.67;;;16.50;1.00;;;;;;5099707;27;20257;-84
2023/05/15 18:55:16;;;;;;;11.80;7.37;;;16.40;1.00;;;;;;5098692;28;20422;-83
2023/05/15 19:01:03;;;;;;;15.03;7.50;;;16.00;1.00;;;;;;5115455;27;20799;-84
2023/05/15 19:07:16;;;;;;;9.37;6.97;;;15.90;1.00;;;;;;5116635;27;20205;-84
2023/05/15 19:16:27;;;;;;;13.57;7.97;;;15.60;1.00;;;;;;5122341;27;20999;-84
2023/05/15 19:18:58;;;;;;;19.93;8.87;;;15.60;1.00;;;;;;5101972;28;20424;-84
2023/05/15 19:28:08;;;;;;;10.67;7.53;;;15.40;1.00;;;;;;5114787;28;20586;-84
2023/05/15 19:30:58;;;;;;;12.10;8.50;;;15.40;1.00;;;;;;5100893;28;20511;-84
2023/05/15 19:34:10;;;;;;;9.93;7.60;;;15.40;1.00;;;;;;5116179;27;20177;-86
2023/05/15 19:50:04;;;;;;;13.00;8.80;;;15.20;1.00;;;;;;5115284;28;20486;-86
2023/05/15 19:55:52;;;;;;;14.90;8.77;;;14.90;1.00;;;;;;5114581;28;20369;-86
2023/05/15 20:01:40;;;;;;;18.13;8.60;;;14.70;1.00;;;;;;5119023;28;20235;-86
2023/05/15 20:07:28;;;;;;;8.93;7.30;;;14.60;1.00;;;;;;5119597;28;20434;-86
2023/05/15 20:13:15;;;;;;;13.63;8.33;;;14.40;1.00;;;;;;5113834;28;20279;-85
2023/05/15 20:15:41;;;;;;;15.83;8.90;;;14.30;1.00;;;;;;5101143;28;20440;-71